sensor_id;sensor_type;location;lat;lon;timestamp;pressure;altitude;pressure_sealevel;temperature;humidity
4392;BME280;2210;51.938;8.488;2022-08-19T00:02:32;100260.44;;;20.39;100.00
4392;BME280;2210;51.938;8.488;2022-08-19T00:06:34;100252.72;;;20.17;100.00
4392;BME280;2210;51.938;8.488;2022-08-19T00:10:35;100251.91;;;20.16;100.00
4392;BME280;2210;51.938;8.488;2022-08-19T00:14:36;100241.34;;;20.27;100.00
4392;BME280;2210;51.938;8.488;2022-08-19T00:18:38;100251.50;;;20.23;100.00
4392;BME280;2210;51.938;8.488;2022-08-19T00:22:40;100261.25;;;20.12;100.00
4392;BME280;2210;51.938;8.488;2022-08-19T00:26:42;100263.53;;;20.24;100.00
4392;BME280;2210;51.938;8.488;2022-08-19T00:30:43;100248.47;;;20.19;100.00
4392;BME280;2210;51.938;8.488;2022-08-19T00:34:43;100232.22;;;20.21;100.00
4392;BME280;2210;51.938;8.488;2022-08-19T00:38:43;100229.41;;;20.21;100.00
4392;BME280;2210;51.938;8.488;2022-08-19T00:42:43;100234.38;;;20.11;100.00
4392;BME280;2210;51.938;8.488;2022-08-19T00:46:46;100230.31;;;20.03;100.00
4392;BME280;2210;51.938;8.488;2022-08-19T00:50:48;100229.81;;;20.01;100.00
4392;BME280;2210;51.938;8.488;2022-08-19T00:54:51;100229.06;;;19.95;100.00
4392;BME280;2210;51.938;8.488;2022-08-19T00:58:54;100234.38;;;19.97;100.00
4392;BME280;2210;51.938;8.488;2022-08-19T01:02:55;100241.91;;;19.82;100.00
4392;BME280;2210;51.938;8.488;2022-08-19T01:06:56;100232.44;;;19.78;100.00
4392;BME280;2210;51.938;8.488;2022-08-19T01:10:59;100234.09;;;19.79;100.00
4392;BME280;2210;51.938;8.488;2022-08-19T01:15:00;100227.72;;;19.74;100.00
4392;BME280;2210;51.938;8.488;2022-08-19T01:19:01;100218.00;;;19.71;100.00
4392;BME280;2210;51.938;8.488;2022-08-19T01:23:03;100209.50;;;19.76;100.00
4392;BME280;2210;51.938;8.488;2022-08-19T01:27:05;100215.72;;;19.73;100.00
4392;BME280;2210;51.938;8.488;2022-08-19T01:31:12;100223.00;;;19.74;100.00
4392;BME280;2210;51.938;8.488;2022-08-19T01:35:13;100213.56;;;19.70;100.00
4392;BME280;2210;51.938;8.488;2022-08-19T01:39:20;100208.03;;;19.65;100.00
4392;BME280;2210;51.938;8.488;2022-08-19T01:43:20;100196.44;;;19.58;100.00
4392;BME280;2210;51.938;8.488;2022-08-19T01:47:21;100183.44;;;19.48;100.00
4392;BME280;2210;51.938;8.488;2022-08-19T01:51:21;100174.75;;;19.49;100.00
4392;BME280;2210;51.938;8.488;2022-08-19T01:55:21;100175.81;;;19.53;100.00
4392;BME280;2210;51.938;8.488;2022-08-19T01:59:24;100171.44;;;19.47;100.00
4392;BME280;2210;51.938;8.488;2022-08-19T02:03:24;100177.50;;;19.35;100.00
4392;BME280;2210;51.938;8.488;2022-08-19T02:07:25;100173.34;;;19.33;100.00
4392;BME280;2210;51.938;8.488;2022-08-19T02:11:29;100186.97;;;19.20;100.00
4392;BME280;2210;51.938;8.488;2022-08-19T02:15:31;100182.81;;;19.18;100.00
4392;BME280;2210;51.938;8.488;2022-08-19T02:19:32;100174.72;;;19.16;100.00
4392;BME280;2210;51.938;8.488;2022-08-19T02:23:32;100173.09;;;19.15;100.00
4392;BME280;2210;51.938;8.488;2022-08-19T02:27:33;100177.00;;;19.14;100.00
4392;BME280;2210;51.938;8.488;2022-08-19T02:31:33;100180.84;;;19.18;100.00
4392;BME280;2210;51.938;8.488;2022-08-19T02:35:34;100180.94;;;19.13;100.00
4392;BME280;2210;51.938;8.488;2022-08-19T02:39:34;100189.94;;;19.10;100.00
4392;BME280;2210;51.938;8.488;2022-08-19T02:43:34;100182.31;;;18.97;100.00
4392;BME280;2210;51.938;8.488;2022-08-19T02:47:38;100185.03;;;19.02;100.00
4392;BME280;2210;51.938;8.488;2022-08-19T02:51:42;100185.78;;;19.08;100.00
4392;BME280;2210;51.938;8.488;2022-08-19T02:55:44;100188.34;;;19.04;100.00
4392;BME280;2210;51.938;8.488;2022-08-19T02:59:45;100189.56;;;18.98;100.00
4392;BME280;2210;51.938;8.488;2022-08-19T03:03:45;100196.75;;;18.80;100.00
4392;BME280;2210;51.938;8.488;2022-08-19T03:07:46;100199.53;;;18.80;100.00
4392;BME280;2210;51.938;8.488;2022-08-19T03:11:47;100202.56;;;18.83;100.00
4392;BME280;2210;51.938;8.488;2022-08-19T03:15:47;100212.09;;;18.82;100.00
4392;BME280;2210;51.938;8.488;2022-08-19T03:19:47;100204.63;;;18.78;100.00
4392;BME280;2210;51.938;8.488;2022-08-19T03:23:48;100206.72;;;18.67;100.00
4392;BME280;2210;51.938;8.488;2022-08-19T03:27:48;100214.84;;;18.63;100.00
4392;BME280;2210;51.938;8.488;2022-08-19T03:31:49;100216.59;;;18.59;100.00
4392;BME280;2210;51.938;8.488;2022-08-19T03:40:07;100209.84;;;18.41;100.00
4392;BME280;2210;51.938;8.488;2022-08-19T03:44:07;100212.09;;;18.39;100.00
4392;BME280;2210;51.938;8.488;2022-08-19T03:48:08;100211.06;;;18.30;100.00
4392;BME280;2210;51.938;8.488;2022-08-19T03:52:09;100215.06;;;18.24;100.00
4392;BME280;2210;51.938;8.488;2022-08-19T03:56:10;100207.75;;;18.28;100.00
4392;BME280;2210;51.938;8.488;2022-08-19T04:00:10;100207.22;;;18.26;100.00
4392;BME280;2210;51.938;8.488;2022-08-19T04:04:11;100216.13;;;18.28;100.00
4392;BME280;2210;51.938;8.488;2022-08-19T04:08:12;100225.16;;;18.19;100.00
4392;BME280;2210;51.938;8.488;2022-08-19T04:12:12;100228.66;;;18.06;100.00
4392;BME280;2210;51.938;8.488;2022-08-19T04:16:13;100237.31;;;18.05;100.00
4392;BME280;2210;51.938;8.488;2022-08-19T04:20:13;100229.81;;;18.00;100.00
4392;BME280;2210;51.938;8.488;2022-08-19T04:24:14;100217.63;;;17.91;100.00
4392;BME280;2210;51.938;8.488;2022-08-19T04:28:15;100217.63;;;17.91;100.00
4392;BME280;2210;51.938;8.488;2022-08-19T04:32:15;100215.97;;;17.90;100.00
4392;BME280;2210;51.938;8.488;2022-08-19T04:36:18;100229.88;;;17.95;100.00
4392;BME280;2210;51.938;8.488;2022-08-19T04:40:20;100242.47;;;17.92;100.00
4392;BME280;2210;51.938;8.488;2022-08-19T04:44:39;100233.56;;;17.85;100.00
4392;BME280;2210;51.938;8.488;2022-08-19T04:48:39;100234.38;;;17.91;100.00
4392;BME280;2210;51.938;8.488;2022-08-19T04:52:40;100236.06;;;17.86;100.00
4392;BME280;2210;51.938;8.488;2022-08-19T04:56:43;100249.63;;;17.98;100.00
4392;BME280;2210;51.938;8.488;2022-08-19T05:00:44;100242.13;;;17.99;100.00
4392;BME280;2210;51.938;8.488;2022-08-19T05:04:44;100241.88;;;17.95;100.00
4392;BME280;2210;51.938;8.488;2022-08-19T05:08:45;100242.91;;;18.05;100.00
4392;BME280;2210;51.938;8.488;2022-08-19T05:12:46;100236.41;;;18.09;100.00
4392;BME280;2210;51.938;8.488;2022-08-19T05:16:46;100245.44;;;18.01;100.00
4392;BME280;2210;51.938;8.488;2022-08-19T05:20:46;100241.09;;;17.84;100.00
4392;BME280;2210;51.938;8.488;2022-08-19T05:25:11;100242.72;;;17.91;100.00
4392;BME280;2210;51.938;8.488;2022-08-19T05:29:13;100244.97;;;17.94;100.00
4392;BME280;2210;51.938;8.488;2022-08-19T05:33:14;100244.91;;;17.99;100.00
4392;BME280;2210;51.938;8.488;2022-08-19T05:37:14;100238.25;;;18.19;100.00
4392;BME280;2210;51.938;8.488;2022-08-19T05:41:14;100236.91;;;18.16;100.00
4392;BME280;2210;51.938;8.488;2022-08-19T05:45:15;100239.28;;;18.28;100.00
4392;BME280;2210;51.938;8.488;2022-08-19T05:49:16;100229.03;;;18.24;100.00
4392;BME280;2210;51.938;8.488;2022-08-19T05:53:17;100229.03;;;18.24;100.00
4392;BME280;2210;51.938;8.488;2022-08-19T05:57:18;100223.50;;;18.18;100.00
4392;BME280;2210;51.938;8.488;2022-08-19T06:01:19;100220.66;;;18.24;100.00
4392;BME280;2210;51.938;8.488;2022-08-19T06:05:20;100237.28;;;18.10;100.00
4392;BME280;2210;51.938;8.488;2022-08-19T06:09:21;100234.28;;;18.01;100.00
4392;BME280;2210;51.938;8.488;2022-08-19T06:13:22;100229.06;;;18.18;100.00
4392;BME280;2210;51.938;8.488;2022-08-19T06:17:23;100228.97;;;18.29;100.00
4392;BME280;2210;51.938;8.488;2022-08-19T06:21:27;100241.91;;;18.44;100.00
4392;BME280;2210;51.938;8.488;2022-08-19T06:25:28;100244.09;;;18.71;100.00
4392;BME280;2210;51.938;8.488;2022-08-19T06:29:28;100239.25;;;18.77;100.00
4392;BME280;2210;51.938;8.488;2022-08-19T06:33:30;100238.19;;;18.97;100.00
4392;BME280;2210;51.938;8.488;2022-08-19T06:37:30;100243.31;;;18.90;100.00
4392;BME280;2210;51.938;8.488;2022-08-19T06:41:31;100243.53;;;19.12;100.00
4392;BME280;2210;51.938;8.488;2022-08-19T06:45:31;100249.22;;;19.26;100.00
4392;BME280;2210;51.938;8.488;2022-08-19T06:49:32;100245.31;;;19.60;100.00
4392;BME280;2210;51.938;8.488;2022-08-19T06:53:33;100242.31;;;19.90;100.00
4392;BME280;2210;51.938;8.488;2022-08-19T06:57:34;100246.41;;;19.78;100.00
4392;BME280;2210;51.938;8.488;2022-08-19T07:01:43;100255.88;;;19.82;100.00
4392;BME280;2210;51.938;8.488;2022-08-19T07:05:45;100257.72;;;20.20;100.00
4392;BME280;2210;51.938;8.488;2022-08-19T07:09:46;100259.44;;;20.02;100.00
4392;BME280;2210;51.938;8.488;2022-08-19T07:13:47;100263.66;;;20.32;100.00
4392;BME280;2210;51.938;8.488;2022-08-19T07:17:48;100268.03;;;20.52;100.00
4392;BME280;2210;51.938;8.488;2022-08-19T07:21:50;100261.66;;;20.33;100.00
4392;BME280;2210;51.938;8.488;2022-08-19T07:25:53;100259.59;;;20.66;100.00
4392;BME280;2210;51.938;8.488;2022-08-19T07:29:53;100265.63;;;20.87;100.00
4392;BME280;2210;51.938;8.488;2022-08-19T07:33:56;100267.28;;;20.88;100.00
4392;BME280;2210;51.938;8.488;2022-08-19T07:37:56;100283.03;;;21.12;100.00
4392;BME280;2210;51.938;8.488;2022-08-19T07:41:59;100285.25;;;21.38;99.83
4392;BME280;2210;51.938;8.488;2022-08-19T07:46:00;100298.75;;;21.36;96.70
4392;BME280;2210;51.938;8.488;2022-08-19T07:50:00;100298.25;;;21.20;99.59
4392;BME280;2210;51.938;8.488;2022-08-19T07:54:00;100294.06;;;21.45;99.09
4392;BME280;2210;51.938;8.488;2022-08-19T07:58:01;100286.28;;;21.79;94.13
4392;BME280;2210;51.938;8.488;2022-08-19T08:02:01;100292.22;;;21.77;94.68
4392;BME280;2210;51.938;8.488;2022-08-19T08:06:02;100303.31;;;22.14;92.95
4392;BME280;2210;51.938;8.488;2022-08-19T08:10:21;100308.63;;;22.15;93.25
4392;BME280;2210;51.938;8.488;2022-08-19T08:14:25;100316.09;;;22.20;92.47
4392;BME280;2210;51.938;8.488;2022-08-19T08:18:26;100311.69;;;22.05;92.88
4392;BME280;2210;51.938;8.488;2022-08-19T08:22:26;100317.63;;;22.03;93.53
4392;BME280;2210;51.938;8.488;2022-08-19T08:26:45;100318.31;;;22.32;91.76
4392;BME280;2210;51.938;8.488;2022-08-19T08:30:47;100311.81;;;22.45;92.06
4392;BME280;2210;51.938;8.488;2022-08-19T08:34:48;100309.38;;;22.61;92.00
4392;BME280;2210;51.938;8.488;2022-08-19T08:38:48;100307.94;;;22.72;92.03
4392;BME280;2210;51.938;8.488;2022-08-19T08:42:55;100315.50;;;22.63;91.56
4392;BME280;2210;51.938;8.488;2022-08-19T08:47:03;100317.78;;;22.52;93.86
4392;BME280;2210;51.938;8.488;2022-08-19T08:51:09;100305.63;;;22.74;92.05
4392;BME280;2210;51.938;8.488;2022-08-19T08:55:16;100304.06;;;23.00;90.33
4392;BME280;2210;51.938;8.488;2022-08-19T08:59:31;100304.06;;;23.00;90.00
4392;BME280;2210;51.938;8.488;2022-08-19T09:03:36;100309.00;;;22.94;87.62
4392;BME280;2210;51.938;8.488;2022-08-19T09:07:52;100295.53;;;23.22;85.33
4392;BME280;2210;51.938;8.488;2022-08-19T09:12:20;100288.59;;;23.46;83.66
4392;BME280;2210;51.938;8.488;2022-08-19T09:16:22;100294.38;;;23.67;82.46
4392;BME280;2210;51.938;8.488;2022-08-19T09:20:26;100304.31;;;23.56;79.20
4392;BME280;2210;51.938;8.488;2022-08-19T09:24:26;100301.81;;;23.54;80.26
4392;BME280;2210;51.938;8.488;2022-08-19T09:28:27;100296.69;;;24.00;80.03
4392;BME280;2210;51.938;8.488;2022-08-19T09:32:29;100299.34;;;23.70;77.97
4392;BME280;2210;51.938;8.488;2022-08-19T09:36:31;100289.06;;;23.74;75.38
4392;BME280;2210;51.938;8.488;2022-08-19T09:40:35;100295.88;;;23.82;73.12
4392;BME280;2210;51.938;8.488;2022-08-19T09:44:36;100298.16;;;23.80;73.14
4392;BME280;2210;51.938;8.488;2022-08-19T09:48:36;100298.84;;;23.60;74.13
4392;BME280;2210;51.938;8.488;2022-08-19T09:52:37;100298.50;;;23.79;72.27
4392;BME280;2210;51.938;8.488;2022-08-19T09:56:38;100294.81;;;24.13;74.80
4392;BME280;2210;51.938;8.488;2022-08-19T10:00:38;100285.09;;;24.49;71.02
4392;BME280;2210;51.938;8.488;2022-08-19T10:04:39;100293.25;;;24.42;70.66
4392;BME280;2210;51.938;8.488;2022-08-19T10:08:58;100290.44;;;24.42;69.41
4392;BME280;2210;51.938;8.488;2022-08-19T10:12:59;100294.06;;;24.51;69.64
4392;BME280;2210;51.938;8.488;2022-08-19T10:16:59;100294.69;;;24.57;65.17
4392;BME280;2210;51.938;8.488;2022-08-19T10:21:10;100292.00;;;24.61;60.01
4392;BME280;2210;51.938;8.488;2022-08-19T10:25:11;100285.81;;;24.37;61.74
4392;BME280;2210;51.938;8.488;2022-08-19T10:29:13;100281.13;;;24.89;58.59
4392;BME280;2210;51.938;8.488;2022-08-19T10:33:15;100281.66;;;24.82;57.37
4392;BME280;2210;51.938;8.488;2022-08-19T10:37:17;100275.78;;;24.96;61.14
4392;BME280;2210;51.938;8.488;2022-08-19T10:41:20;100264.50;;;25.17;59.13
4392;BME280;2210;51.938;8.488;2022-08-19T10:45:23;100253.38;;;25.42;56.42
4392;BME280;2210;51.938;8.488;2022-08-19T10:49:25;100251.84;;;25.66;57.92
4392;BME280;2210;51.938;8.488;2022-08-19T10:53:26;100238.16;;;25.89;56.21
4392;BME280;2210;51.938;8.488;2022-08-19T10:57:30;100242.00;;;26.05;52.63
4392;BME280;2210;51.938;8.488;2022-08-19T11:01:32;100241.19;;;26.05;54.87
4392;BME280;2210;51.938;8.488;2022-08-19T11:05:33;100237.69;;;25.87;55.73
4392;BME280;2210;51.938;8.488;2022-08-19T11:09:41;100239.50;;;25.37;53.84
4392;BME280;2210;51.938;8.488;2022-08-19T11:13:42;100244.66;;;25.35;56.20
4392;BME280;2210;51.938;8.488;2022-08-19T11:17:44;100246.78;;;25.59;54.90
4392;BME280;2210;51.938;8.488;2022-08-19T11:21:48;100241.47;;;25.57;54.95
4392;BME280;2210;51.938;8.488;2022-08-19T11:25:49;100234.28;;;25.93;53.11
4392;BME280;2210;51.938;8.488;2022-08-19T11:29:49;100228.84;;;25.76;53.31
4392;BME280;2210;51.938;8.488;2022-08-19T11:33:49;100223.25;;;26.01;52.58
4392;BME280;2210;51.938;8.488;2022-08-19T11:37:53;100229.34;;;26.36;58.96
4392;BME280;2210;51.938;8.488;2022-08-19T11:41:54;100213.53;;;26.35;55.45
4392;BME280;2210;51.938;8.488;2022-08-19T11:45:55;100208.47;;;26.16;53.80
4392;BME280;2210;51.938;8.488;2022-08-19T11:49:56;100216.88;;;25.91;55.03
4392;BME280;2210;51.938;8.488;2022-08-19T11:53:57;100213.03;;;26.08;52.83
4392;BME280;2210;51.938;8.488;2022-08-19T11:57:58;100207.75;;;26.19;50.45
4392;BME280;2210;51.938;8.488;2022-08-19T12:01:58;100211.81;;;25.97;51.59
4392;BME280;2210;51.938;8.488;2022-08-19T12:06:08;100204.91;;;26.07;50.29
4392;BME280;2210;51.938;8.488;2022-08-19T12:10:10;100204.25;;;26.10;50.91
4392;BME280;2210;51.938;8.488;2022-08-19T12:14:12;100199.66;;;26.42;50.41
4392;BME280;2210;51.938;8.488;2022-08-19T12:18:14;100204.69;;;26.49;50.52
4392;BME280;2210;51.938;8.488;2022-08-19T12:22:14;100202.13;;;26.32;50.94
4392;BME280;2210;51.938;8.488;2022-08-19T12:26:15;100195.78;;;26.47;53.17
4392;BME280;2210;51.938;8.488;2022-08-19T12:30:16;100184.09;;;26.73;49.16
4392;BME280;2210;51.938;8.488;2022-08-19T12:34:16;100189.72;;;26.98;47.08
4392;BME280;2210;51.938;8.488;2022-08-19T12:38:17;100190.06;;;26.97;47.48
4392;BME280;2210;51.938;8.488;2022-08-19T12:42:17;100174.84;;;27.01;48.42
4392;BME280;2210;51.938;8.488;2022-08-19T12:46:19;100171.19;;;27.13;47.89
4392;BME280;2210;51.938;8.488;2022-08-19T12:50:19;100160.34;;;27.03;49.91
4392;BME280;2210;51.938;8.488;2022-08-19T12:54:21;100162.03;;;27.32;49.00
4392;BME280;2210;51.938;8.488;2022-08-19T12:58:21;100163.56;;;27.30;47.69
4392;BME280;2210;51.938;8.488;2022-08-19T13:02:21;100164.53;;;27.21;48.69
4392;BME280;2210;51.938;8.488;2022-08-19T13:06:22;100153.03;;;27.42;48.70
4392;BME280;2210;51.938;8.488;2022-08-19T13:10:25;100159.16;;;27.45;48.95
4392;BME280;2210;51.938;8.488;2022-08-19T13:14:27;100162.53;;;27.50;47.54
4392;BME280;2210;51.938;8.488;2022-08-19T13:18:30;100156.03;;;26.93;49.51
4392;BME280;2210;51.938;8.488;2022-08-19T13:22:31;100158.53;;;26.70;51.17
4392;BME280;2210;51.938;8.488;2022-08-19T13:26:31;100159.00;;;26.59;52.96
4392;BME280;2210;51.938;8.488;2022-08-19T13:30:32;100147.78;;;26.88;50.92
4392;BME280;2210;51.938;8.488;2022-08-19T13:34:51;100145.72;;;27.13;48.14
4392;BME280;2210;51.938;8.488;2022-08-19T13:38:51;100149.72;;;27.12;46.96
4392;BME280;2210;51.938;8.488;2022-08-19T13:42:53;100147.22;;;27.51;46.06
4392;BME280;2210;51.938;8.488;2022-08-19T13:46:54;100143.25;;;27.40;46.91
4392;BME280;2210;51.938;8.488;2022-08-19T13:50:54;100136.44;;;27.29;47.69
4392;BME280;2210;51.938;8.488;2022-08-19T13:54:55;100141.53;;;27.51;46.95
4392;BME280;2210;51.938;8.488;2022-08-19T13:58:56;100132.41;;;27.30;47.32
4392;BME280;2210;51.938;8.488;2022-08-19T14:02:57;100139.81;;;27.06;49.02
4392;BME280;2210;51.938;8.488;2022-08-19T14:06:57;100134.88;;;27.03;47.39
4392;BME280;2210;51.938;8.488;2022-08-19T14:10:58;100136.00;;;27.14;46.86
4392;BME280;2210;51.938;8.488;2022-08-19T14:14:59;100136.91;;;27.02;48.54
4392;BME280;2210;51.938;8.488;2022-08-19T14:18:59;100143.00;;;27.04;47.86
4392;BME280;2210;51.938;8.488;2022-08-19T14:22:59;100136.28;;;27.09;47.32
4392;BME280;2210;51.938;8.488;2022-08-19T14:27:00;100146.56;;;27.01;47.14
4392;BME280;2210;51.938;8.488;2022-08-19T14:31:00;100144.63;;;27.18;48.54
4392;BME280;2210;51.938;8.488;2022-08-19T14:35:04;100146.16;;;27.15;48.20
4392;BME280;2210;51.938;8.488;2022-08-19T14:39:05;100151.03;;;27.02;48.14
4392;BME280;2210;51.938;8.488;2022-08-19T14:43:05;100140.69;;;26.94;47.41
4392;BME280;2210;51.938;8.488;2022-08-19T14:47:05;100145.34;;;26.74;46.90
4392;BME280;2210;51.938;8.488;2022-08-19T14:51:07;100151.09;;;26.65;47.42
4392;BME280;2210;51.938;8.488;2022-08-19T14:55:09;100147.94;;;26.54;48.14
4392;BME280;2210;51.938;8.488;2022-08-19T14:59:09;100153.22;;;26.68;49.05
4392;BME280;2210;51.938;8.488;2022-08-19T15:03:09;100149.78;;;26.87;49.39
4392;BME280;2210;51.938;8.488;2022-08-19T15:07:10;100147.06;;;26.91;47.54
4392;BME280;2210;51.938;8.488;2022-08-19T15:11:14;100149.53;;;26.92;49.48
4392;BME280;2210;51.938;8.488;2022-08-19T15:15:16;100156.34;;;27.04;47.82
4392;BME280;2210;51.938;8.488;2022-08-19T15:19:17;100149.41;;;27.01;48.46
4392;BME280;2210;51.938;8.488;2022-08-19T15:23:18;100153.97;;;27.06;47.71
4392;BME280;2210;51.938;8.488;2022-08-19T15:27:19;100160.34;;;27.03;46.90
4392;BME280;2210;51.938;8.488;2022-08-19T15:31:21;100155.25;;;27.08;46.36
4392;BME280;2210;51.938;8.488;2022-08-19T15:35:22;100161.22;;;27.19;46.69
4392;BME280;2210;51.938;8.488;2022-08-19T15:39:23;100170.34;;;27.13;46.65
4392;BME280;2210;51.938;8.488;2022-08-19T15:43:23;100162.38;;;27.02;48.15
4392;BME280;2210;51.938;8.488;2022-08-19T15:47:23;100158.94;;;26.97;49.91
4392;BME280;2210;51.938;8.488;2022-08-19T15:51:25;100164.88;;;26.91;50.07
4392;BME280;2210;51.938;8.488;2022-08-19T15:55:29;100165.56;;;26.88;48.54
4392;BME280;2210;51.938;8.488;2022-08-19T15:59:32;100168.75;;;26.87;48.35
4392;BME280;2210;51.938;8.488;2022-08-19T16:03:53;100163.78;;;26.96;48.16
4392;BME280;2210;51.938;8.488;2022-08-19T16:08:12;100177.81;;;26.92;49.58
4392;BME280;2210;51.938;8.488;2022-08-19T16:12:14;100184.56;;;26.88;48.08
4392;BME280;2210;51.938;8.488;2022-08-19T16:16:16;100180.44;;;26.85;48.24
4392;BME280;2210;51.938;8.488;2022-08-19T16:20:19;100187.25;;;26.84;48.40
4392;BME280;2210;51.938;8.488;2022-08-19T16:24:23;100179.75;;;26.76;48.53
4392;BME280;2210;51.938;8.488;2022-08-19T16:28:24;100169.97;;;26.73;49.31
4392;BME280;2210;51.938;8.488;2022-08-19T16:32:24;100169.22;;;26.64;47.93
4392;BME280;2210;51.938;8.488;2022-08-19T16:36:25;100171.84;;;26.57;47.38
4392;BME280;2210;51.938;8.488;2022-08-19T16:40:25;100170.31;;;26.47;50.61
4392;BME280;2210;51.938;8.488;2022-08-19T16:44:26;100171.16;;;26.35;49.56
4392;BME280;2210;51.938;8.488;2022-08-19T16:48:28;100173.38;;;26.17;52.21
4392;BME280;2210;51.938;8.488;2022-08-19T16:52:29;100181.28;;;26.24;53.00
4392;BME280;2210;51.938;8.488;2022-08-19T16:56:29;100181.28;;;26.24;54.36
4392;BME280;2210;51.938;8.488;2022-08-19T17:00:29;100181.88;;;26.17;51.92
4392;BME280;2210;51.938;8.488;2022-08-19T17:04:30;100173.63;;;26.12;53.03
4392;BME280;2210;51.938;8.488;2022-08-19T17:08:31;100176.09;;;26.14;51.56
4392;BME280;2210;51.938;8.488;2022-08-19T17:12:31;100177.38;;;26.04;51.61
4392;BME280;2210;51.938;8.488;2022-08-19T17:16:34;100175.72;;;26.03;52.26
4392;BME280;2210;51.938;8.488;2022-08-19T17:20:35;100176.56;;;26.03;52.49
4392;BME280;2210;51.938;8.488;2022-08-19T17:24:36;100189.34;;;26.01;52.23
4392;BME280;2210;51.938;8.488;2022-08-19T17:28:37;100182.28;;;25.95;52.40
4392;BME280;2210;51.938;8.488;2022-08-19T17:32:37;100178.50;;;25.90;52.59
4392;BME280;2210;51.938;8.488;2022-08-19T17:36:37;100176.53;;;25.91;52.98
4392;BME280;2210;51.938;8.488;2022-08-19T17:40:38;100179.06;;;25.84;54.69
4392;BME280;2210;51.938;8.488;2022-08-19T17:44:40;100177.16;;;25.75;54.33
4392;BME280;2210;51.938;8.488;2022-08-19T17:48:41;100179.53;;;25.73;54.18
4392;BME280;2210;51.938;8.488;2022-08-19T17:52:42;100171.50;;;25.63;55.17
4392;BME280;2210;51.938;8.488;2022-08-19T17:56:43;100166.06;;;25.58;56.16
4392;BME280;2210;51.938;8.488;2022-08-19T18:00:45;100159.81;;;25.52;55.61
4392;BME280;2210;51.938;8.488;2022-08-19T18:04:45;100158.63;;;25.41;56.30
4392;BME280;2210;51.938;8.488;2022-08-19T18:08:46;100157.16;;;25.35;55.96
4392;BME280;2210;51.938;8.488;2022-08-19T18:12:48;100154.88;;;25.28;56.21
4392;BME280;2210;51.938;8.488;2022-08-19T18:16:48;100151.19;;;25.15;56.58
4392;BME280;2210;51.938;8.488;2022-08-19T18:20:50;100153.53;;;25.13;57.11
4392;BME280;2210;51.938;8.488;2022-08-19T18:24:51;100161.88;;;25.10;58.67
4392;BME280;2210;51.938;8.488;2022-08-19T18:28:51;100167.50;;;24.88;58.73
4392;BME280;2210;51.938;8.488;2022-08-19T18:32:53;100170.38;;;24.80;59.46
4392;BME280;2210;51.938;8.488;2022-08-19T18:36:53;100167.22;;;24.81;59.38
4392;BME280;2210;51.938;8.488;2022-08-19T18:40:53;100169.56;;;24.79;59.78
4392;BME280;2210;51.938;8.488;2022-08-19T18:45:12;100181.91;;;24.66;60.02
4392;BME280;2210;51.938;8.488;2022-08-19T18:49:32;100191.53;;;24.65;60.24
4392;BME280;2210;51.938;8.488;2022-08-19T18:53:34;100185.22;;;24.68;61.29
4392;BME280;2210;51.938;8.488;2022-08-19T18:57:35;100189.22;;;24.67;61.24
4392;BME280;2210;51.938;8.488;2022-08-19T19:01:39;100204.69;;;24.52;62.36
4392;BME280;2210;51.938;8.488;2022-08-19T19:05:46;100214.31;;;24.51;61.95
4392;BME280;2210;51.938;8.488;2022-08-19T19:09:47;100202.03;;;24.55;61.60
4392;BME280;2210;51.938;8.488;2022-08-19T19:13:51;100217.81;;;24.48;64.28
4392;BME280;2210;51.938;8.488;2022-08-19T19:17:51;100218.00;;;24.42;65.31
4392;BME280;2210;51.938;8.488;2022-08-19T19:21:53;100225.28;;;24.44;64.35
4392;BME280;2210;51.938;8.488;2022-08-19T19:25:54;100230.41;;;24.50;64.90
4392;BME280;2210;51.938;8.488;2022-08-19T19:29:54;100234.09;;;24.42;65.44
4392;BME280;2210;51.938;8.488;2022-08-19T19:33:55;100235.44;;;24.36;65.07
4392;BME280;2210;51.938;8.488;2022-08-19T19:37:57;100233.28;;;24.33;66.34
4392;BME280;2210;51.938;8.488;2022-08-19T19:41:58;100235.59;;;24.31;66.40
4392;BME280;2210;51.938;8.488;2022-08-19T19:45:58;100244.03;;;24.39;65.32
4392;BME280;2210;51.938;8.488;2022-08-19T19:49:58;100239.44;;;24.26;64.78
4392;BME280;2210;51.938;8.488;2022-08-19T19:53:59;100254.09;;;24.49;63.57
4392;BME280;2210;51.938;8.488;2022-08-19T19:58:01;100257.50;;;24.34;63.37
4392;BME280;2210;51.938;8.488;2022-08-19T20:02:03;100257.84;;;24.23;65.33
4392;BME280;2210;51.938;8.488;2022-08-19T20:06:06;100264.63;;;24.22;67.56
4392;BME280;2210;51.938;8.488;2022-08-19T20:10:06;100271.97;;;24.06;68.50
4392;BME280;2210;51.938;8.488;2022-08-19T20:14:13;100273.34;;;24.00;67.02
4392;BME280;2210;51.938;8.488;2022-08-19T20:18:14;100278.63;;;23.93;69.37
4392;BME280;2210;51.938;8.488;2022-08-19T20:22:14;100270.53;;;23.82;68.98
4392;BME280;2210;51.938;8.488;2022-08-19T20:26:15;100279.47;;;23.76;69.48
4392;BME280;2210;51.938;8.488;2022-08-19T20:30:20;100273.69;;;23.63;70.88
4392;BME280;2210;51.938;8.488;2022-08-19T20:34:20;100281.13;;;23.50;71.92
4392;BME280;2210;51.938;8.488;2022-08-19T20:38:21;100291.91;;;23.48;71.43
4392;BME280;2210;51.938;8.488;2022-08-19T20:42:21;100292.38;;;23.50;71.91
4392;BME280;2210;51.938;8.488;2022-08-19T20:46:22;100298.03;;;23.42;71.97
4392;BME280;2210;51.938;8.488;2022-08-19T20:50:23;100298.84;;;23.42;71.71
4392;BME280;2210;51.938;8.488;2022-08-19T20:54:23;100309.91;;;23.38;71.34
4392;BME280;2210;51.938;8.488;2022-08-19T20:58:24;100304.97;;;23.35;72.38
4392;BME280;2210;51.938;8.488;2022-08-19T21:02:24;100301.19;;;23.40;72.42
4392;BME280;2210;51.938;8.488;2022-08-19T21:06:25;100305.28;;;23.34;73.42
4392;BME280;2210;51.938;8.488;2022-08-19T21:10:25;100304.47;;;23.33;74.37
4392;BME280;2210;51.938;8.488;2022-08-19T21:14:26;100304.63;;;23.28;75.92
4392;BME280;2210;51.938;8.488;2022-08-19T21:18:26;100301.78;;;23.19;76.68
4392;BME280;2210;51.938;8.488;2022-08-19T21:22:27;100316.69;;;23.20;77.59
4392;BME280;2210;51.938;8.488;2022-08-19T21:26:27;100312.41;;;23.22;77.65
4392;BME280;2210;51.938;8.488;2022-08-19T21:30:27;100311.75;;;23.26;78.72
4392;BME280;2210;51.938;8.488;2022-08-19T21:34:27;100312.22;;;23.19;79.65
4392;BME280;2210;51.938;8.488;2022-08-19T21:38:28;100320.00;;;23.13;79.57